createdAt,value
2023-03-30T00:01:03.171Z,16.6
2023-03-30T00:02:19.214Z,16.6
2023-03-30T00:03:35.547Z,16.6
2023-03-30T00:04:51.742Z,16.6
2023-03-30T00:06:07.923Z,16.6
2023-03-30T00:07:24.111Z,16.6
2023-03-30T00:08:40.151Z,16.6
2023-03-30T00:09:56.355Z,16.6
2023-03-30T00:11:12.682Z,16.6
2023-03-30T00:12:28.878Z,16.6
2023-03-30T00:13:45.064Z,16.6
2023-03-30T00:15:01.100Z,16.6
2023-03-30T00:16:16.443Z,16.6
2023-03-30T00:17:32.647Z,16.6
2023-03-30T00:18:48.823Z,16.6
2023-03-30T00:20:05.022Z,16.6
2023-03-30T00:21:21.062Z,16.6
2023-03-30T00:22:37.400Z,16.6
2023-03-30T00:23:53.436Z,16.6
2023-03-30T00:25:09.799Z,16.6
2023-03-30T00:26:25.960Z,16.6
2023-03-30T00:27:42.010Z,16.6
2023-03-30T00:28:58.197Z,16.6
2023-03-30T00:30:14.526Z,16.6
2023-03-30T00:31:30.717Z,16.6
2023-03-30T00:32:47.033Z,16.6
2023-03-30T00:34:03.230Z,16.6
2023-03-30T00:35:19.413Z,16.6
2023-03-30T00:36:35.444Z,16.6
2023-03-30T00:37:51.791Z,16.6
2023-03-30T00:39:07.979Z,16.6
2023-03-30T00:40:24.169Z,16.6
2023-03-30T00:41:40.215Z,16.6
2023-03-30T00:42:56.539Z,16.6
2023-03-30T00:44:12.575Z,16.6
2023-03-30T00:45:28.932Z,16.6
2023-03-30T00:46:44.954Z,16.7
2023-03-30T00:48:01.148Z,16.7
2023-03-30T00:49:16.511Z,16.7
2023-03-30T00:50:32.707Z,16.7
2023-03-30T00:51:48.881Z,16.7
2023-03-30T00:53:04.925Z,16.6
2023-03-30T00:54:21.104Z,16.6
2023-03-30T00:55:37.449Z,16.6
2023-03-30T00:56:53.493Z,16.6
2023-03-30T00:58:09.849Z,16.6
2023-03-30T00:59:25.867Z,16.6
2023-03-30T01:00:42.054Z,16.6
2023-03-30T01:01:58.256Z,16.6
2023-03-30T01:03:14.438Z,16.6
2023-03-30T01:04:30.747Z,16.6
2023-03-30T01:05:45.821Z,16.6
2023-03-30T01:07:02.008Z,16.6
2023-03-30T01:08:18.328Z,16.6
2023-03-30T01:09:34.521Z,16.6
2023-03-30T01:10:50.707Z,16.6
2023-03-30T01:12:06.781Z,16.6
2023-03-30T01:13:23.080Z,16.6
2023-03-30T01:14:39.155Z,16.6
2023-03-30T01:15:55.462Z,16.6
2023-03-30T01:17:11.525Z,16.6
2023-03-30T01:18:27.715Z,16.6
2023-03-30T01:19:44.033Z,16.6
2023-03-30T01:21:00.220Z,16.6
2023-03-30T01:22:15.308Z,16.6
2023-03-30T01:23:31.602Z,16.6
2023-03-30T01:24:47.677Z,16.6
2023-03-30T01:26:03.992Z,16.6
2023-03-30T01:27:20.172Z,16.6
2023-03-30T01:28:36.360Z,16.6
2023-03-30T01:29:52.561Z,16.6
2023-03-30T01:31:08.615Z,16.6
2023-03-30T01:32:24.923Z,16.6
2023-03-30T01:33:41.123Z,16.6
2023-03-30T01:34:57.303Z,16.6
2023-03-30T01:36:13.507Z,16.6
2023-03-30T01:37:29.683Z,16.6
2023-03-30T01:38:44.886Z,16.6
2023-03-30T01:40:01.091Z,16.6
2023-03-30T01:41:17.271Z,16.6
2023-03-30T01:42:33.464Z,16.6
2023-03-30T01:43:49.522Z,16.6
2023-03-30T01:45:05.716Z,16.6
2023-03-30T01:46:22.025Z,16.5
2023-03-30T01:47:38.085Z,16.6
2023-03-30T01:48:54.412Z,16.6
2023-03-30T01:50:10.600Z,16.5
2023-03-30T01:51:26.779Z,16.5
2023-03-30T01:52:42.859Z,16.6
2023-03-30T01:53:59.160Z,16.5
2023-03-30T01:55:14.240Z,16.5
2023-03-30T01:56:30.431Z,16.6
2023-03-30T01:57:46.754Z,16.5
2023-03-30T01:59:02.945Z,16.5
2023-03-30T02:00:18.991Z,16.5
2023-03-30T02:01:35.174Z,16.5
2023-03-30T02:02:51.507Z,16.5
2023-03-30T02:04:07.682Z,16.5
2023-03-30T02:05:23.887Z,16.6
2023-03-30T02:06:40.077Z,16.5
2023-03-30T02:07:56.251Z,16.5
2023-03-30T02:09:12.311Z,16.5
2023-03-30T02:10:28.630Z,16.6
2023-03-30T02:11:43.840Z,16.5
2023-03-30T02:13:00.025Z,16.5
2023-03-30T02:14:16.215Z,16.5
2023-03-30T02:15:32.281Z,16.5
2023-03-30T02:16:48.598Z,16.5
2023-03-30T02:18:04.781Z,16.5
2023-03-30T02:19:20.004Z,16.5
2023-03-30T02:20:36.193Z,16.5
2023-03-30T02:21:52.237Z,16.5
2023-03-30T02:23:08.432Z,16.5
2023-03-30T02:24:24.752Z,16.5
2023-03-30T02:25:40.940Z,16.5
2023-03-30T02:26:57.139Z,16.5
2023-03-30T02:28:13.320Z,16.5
2023-03-30T02:29:29.519Z,16.5
2023-03-30T02:30:45.577Z,16.5
2023-03-30T02:32:01.889Z,16.5
2023-03-30T02:33:17.950Z,16.5
2023-03-30T02:34:34.136Z,16.5
2023-03-30T02:35:49.470Z,16.5
2023-03-30T02:37:05.666Z,16.5
2023-03-30T02:38:21.718Z,16.5
2023-03-30T02:39:38.046Z,16.5
2023-03-30T02:40:54.095Z,16.5
2023-03-30T02:42:10.414Z,16.5
2023-03-30T02:43:26.616Z,16.5
2023-03-30T02:44:42.803Z,16.5
2023-03-30T02:45:58.991Z,16.5
2023-03-30T02:47:15.026Z,16.5
2023-03-30T02:48:31.219Z,16.5
2023-03-30T02:49:47.562Z,16.5
2023-03-30T02:51:03.752Z,16.5
2023-03-30T02:52:18.954Z,16.5
2023-03-30T02:53:35.132Z,16.5
2023-03-30T02:54:51.328Z,16.5
2023-03-30T02:56:07.520Z,16.5
2023-03-30T02:57:23.572Z,16.5
2023-03-30T02:58:39.758Z,16.5
2023-03-30T02:59:55.939Z,16.5
2023-03-30T03:01:12.132Z,16.5
2023-03-30T03:02:28.452Z,16.5
2023-03-30T03:03:44.653Z,16.5
2023-03-30T03:05:00.849Z,16.5
2023-03-30T03:06:17.035Z,16.5
2023-03-30T03:07:33.073Z,16.5
2023-03-30T03:08:48.292Z,16.5
2023-03-30T03:10:04.607Z,16.5
2023-03-30T03:11:20.797Z,16.5
2023-03-30T03:12:36.837Z,16.5
2023-03-30T03:13:53.179Z,16.5
2023-03-30T03:15:09.379Z,16.5
2023-03-30T03:16:25.418Z,16.5
2023-03-30T03:17:41.741Z,16.5
2023-03-30T03:18:57.787Z,16.5
2023-03-30T03:20:14.134Z,16.5
2023-03-30T03:21:30.000Z,16.5
2023-03-30T03:22:46.368Z,16.5
2023-03-30T03:24:02.541Z,16.5
2023-03-30T03:25:17.754Z,16.5
2023-03-30T03:26:34.092Z,16.5
2023-03-30T03:27:50.272Z,16.5
2023-03-30T03:29:06.469Z,16.5
2023-03-30T03:30:22.657Z,16.5
2023-03-30T03:31:38.845Z,16.5
2023-03-30T03:32:55.038Z,16.5
2023-03-30T03:34:11.215Z,16.5
2023-03-30T03:35:27.263Z,16.5
2023-03-30T03:36:43.598Z,16.5
2023-03-30T03:37:59.789Z,16.5
2023-03-30T03:39:15.838Z,16.5
2023-03-30T03:40:32.160Z,16.5
2023-03-30T03:41:47.226Z,16.5
2023-03-30T03:43:03.405Z,16.4
2023-03-30T03:44:19.755Z,16.5
2023-03-30T03:45:35.938Z,16.5
2023-03-30T03:46:51.977Z,16.5
2023-03-30T03:48:08.313Z,16.5
2023-03-30T03:49:24.520Z,16.5
2023-03-30T03:50:40.537Z,16.5
2023-03-30T03:51:56.739Z,16.5
2023-03-30T03:53:13.069Z,16.5
2023-03-30T03:54:29.111Z,16.5
2023-03-30T03:55:45.461Z,16.5
2023-03-30T03:57:01.645Z,16.5
2023-03-30T03:58:16.852Z,16.5
2023-03-30T03:59:32.887Z,16.5
2023-03-30T04:00:49.225Z,16.5
2023-03-30T04:02:05.256Z,16.5
2023-03-30T04:03:21.455Z,16.5
2023-03-30T04:04:37.637Z,16.5
2023-03-30T04:05:53.824Z,16.5
2023-03-30T04:07:10.165Z,16.5
2023-03-30T04:08:26.369Z,16.5
2023-03-30T04:09:42.394Z,16.5
2023-03-30T04:10:58.741Z,16.5
2023-03-30T04:12:14.928Z,16.5
2023-03-30T04:13:31.123Z,16.4
2023-03-30T04:14:46.324Z,16.4
2023-03-30T04:16:02.352Z,16.5
2023-03-30T04:17:18.555Z,16.4
2023-03-30T04:18:34.899Z,16.4
2023-03-30T04:19:51.082Z,16.5
2023-03-30T04:21:07.275Z,16.4
2023-03-30T04:22:23.292Z,16.5
2023-03-30T04:23:39.652Z,16.4
2023-03-30T04:24:55.669Z,16.4
2023-03-30T04:26:12.035Z,16.4
2023-03-30T04:27:28.214Z,16.4
2023-03-30T04:28:44.235Z,16.4
2023-03-30T04:30:00.429Z,16.4
2023-03-30T04:31:15.799Z,16.5
2023-03-30T04:32:31.825Z,16.4
2023-03-30T04:33:48.188Z,16.4
2023-03-30T04:35:04.365Z,16.4
2023-03-30T04:36:20.550Z,16.5
2023-03-30T04:37:36.738Z,16.4
2023-03-30T04:38:52.943Z,16.4
2023-03-30T04:40:09.118Z,16.4
2023-03-30T04:41:25.138Z,16.4
2023-03-30T04:42:41.496Z,16.4
2023-03-30T04:43:57.696Z,16.5
2023-03-30T04:45:13.882Z,16.4
2023-03-30T04:46:30.065Z,16.4
2023-03-30T04:47:45.100Z,16.4
2023-03-30T04:49:01.462Z,16.4
2023-03-30T04:50:17.659Z,16.5
2023-03-30T04:51:33.843Z,16.4
2023-03-30T04:52:49.871Z,16.4
2023-03-30T04:54:06.062Z,16.4
2023-03-30T04:55:22.255Z,16.4
2023-03-30T04:56:38.601Z,16.5
2023-03-30T04:57:54.780Z,16.4
2023-03-30T04:59:10.984Z,16.5
2023-03-30T05:00:27.008Z,16.5
2023-03-30T05:01:43.192Z,16.5
2023-03-30T05:02:59.377Z,16.5
2023-03-30T05:04:14.741Z,16.5
2023-03-30T05:05:30.928Z,16.5
2023-03-30T05:06:46.959Z,16.5
2023-03-30T05:08:03.307Z,16.5
2023-03-30T05:09:19.507Z,16.5
2023-03-30T05:10:35.514Z,16.5
2023-03-30T05:11:51.869Z,16.5
2023-03-30T05:13:08.000Z,16.5
2023-03-30T05:14:24.245Z,16.5
2023-03-30T05:15:40.269Z,16.5
2023-03-30T05:16:56.613Z,16.5
2023-03-30T05:18:12.649Z,16.5
2023-03-30T05:19:28.817Z,16.5
2023-03-30T05:20:44.193Z,16.5
2023-03-30T05:22:00.386Z,16.5
2023-03-30T05:23:16.400Z,16.5
2023-03-30T05:24:32.768Z,16.5
2023-03-30T05:25:48.773Z,16.5
2023-03-30T05:27:05.134Z,16.5
2023-03-30T05:28:21.324Z,16.5
2023-03-30T05:29:37.329Z,16.5
2023-03-30T05:30:53.693Z,16.5
2023-03-30T05:32:09.714Z,16.5
2023-03-30T05:33:26.071Z,16.5
2023-03-30T05:34:42.262Z,16.5
2023-03-30T05:35:58.453Z,16.5
2023-03-30T05:37:13.646Z,16.5
2023-03-30T05:38:29.839Z,16.5
2023-03-30T05:39:46.029Z,16.5
2023-03-30T05:41:02.051Z,16.5
2023-03-30T05:42:18.403Z,16.5
2023-03-30T05:43:34.585Z,16.5
2023-03-30T05:44:50.603Z,16.5
2023-03-30T05:46:06.975Z,16.5
2023-03-30T05:47:23.149Z,16.5
2023-03-30T05:48:39.153Z,16.5
2023-03-30T05:49:55.524Z,16.5
2023-03-30T05:51:11.697Z,16.5
2023-03-30T05:52:27.881Z,16.5
2023-03-30T05:53:42.925Z,16.5
2023-03-30T05:54:59.291Z,16.5
2023-03-30T05:56:15.305Z,16.6
2023-03-30T05:57:31.661Z,16.5
2023-03-30T05:58:47.838Z,16.6
2023-03-30T06:00:04.037Z,16.5
2023-03-30T06:01:20.044Z,16.6
2023-03-30T06:02:36.410Z,16.6
2023-03-30T06:03:52.428Z,16.6
2023-03-30T06:05:08.786Z,16.6
2023-03-30T06:06:24.973Z,16.6
2023-03-30T06:07:41.152Z,16.6
2023-03-30T06:08:57.337Z,16.6
2023-03-30T06:10:12.381Z,16.6
2023-03-30T06:11:28.565Z,16.6
2023-03-30T06:12:44.918Z,16.6
2023-03-30T06:14:01.116Z,16.6
2023-03-30T06:15:17.291Z,16.6
2023-03-30T06:16:33.490Z,16.6
2023-03-30T06:17:49.663Z,16.6
2023-03-30T06:19:05.677Z,16.6
2023-03-30T06:20:21.871Z,16.6
2023-03-30T06:21:38.061Z,16.6
2023-03-30T06:22:54.254Z,16.6
2023-03-30T06:24:10.426Z,16.6
2023-03-30T06:25:26.805Z,16.6
2023-03-30T06:26:41.818Z,16.6
2023-03-30T06:27:58.183Z,16.6
2023-03-30T06:29:14.376Z,16.7
2023-03-30T06:30:30.561Z,16.7
2023-03-30T06:31:46.742Z,16.7
2023-03-30T06:33:02.946Z,16.7
2023-03-30T06:34:17.967Z,16.7
2023-03-30T06:35:34.149Z,16.7
2023-03-30T06:36:50.530Z,16.7
2023-03-30T06:38:06.704Z,16.7
2023-03-30T06:39:22.902Z,16.7
2023-03-30T06:40:39.094Z,16.8
2023-03-30T06:41:55.093Z,16.8
2023-03-30T06:43:11.462Z,16.8
2023-03-30T06:44:27.653Z,16.8
2023-03-30T06:45:43.830Z,16.8
2023-03-30T06:46:59.847Z,16.8
2023-03-30T06:48:16.034Z,16.8
2023-03-30T06:49:32.226Z,16.8
2023-03-30T06:50:47.599Z,16.8
2023-03-30T06:52:03.789Z,16.8
2023-03-30T06:53:19.801Z,16.8
2023-03-30T06:54:36.170Z,16.8
2023-03-30T06:55:52.351Z,16.8
2023-03-30T06:57:08.348Z,16.8
2023-03-30T06:58:24.541Z,16.8
2023-03-30T06:59:40.914Z,16.8
2023-03-30T07:00:56.928Z,16.8
2023-03-30T07:02:13.115Z,16.8
2023-03-30T07:03:29.284Z,16.8
2023-03-30T07:04:45.477Z,16.8
2023-03-30T07:06:01.852Z,16.8
2023-03-30T07:07:16.872Z,16.8
2023-03-30T07:08:33.052Z,16.8
2023-03-30T07:09:49.433Z,16.8
2023-03-30T07:11:05.609Z,16.8
2023-03-30T07:12:21.629Z,16.8
2023-03-30T07:13:37.812Z,16.8
2023-03-30T07:14:54.177Z,16.8
2023-03-30T07:16:10.372Z,16.8
2023-03-30T07:17:26.549Z,16.8
2023-03-30T07:18:42.752Z,16.8
2023-03-30T07:19:58.938Z,16.8
2023-03-30T07:21:15.139Z,16.8
2023-03-30T07:22:31.313Z,16.8
2023-03-30T07:23:46.517Z,16.8
2023-03-30T07:25:02.513Z,16.8
2023-03-30T07:26:18.696Z,16.8
2023-03-30T07:27:34.887Z,16.8
2023-03-30T07:28:51.248Z,16.9
2023-03-30T07:30:07.440Z,16.9
2023-03-30T07:31:23.623Z,16.9
2023-03-30T07:32:39.630Z,16.9
2023-03-30T07:33:56.000Z,16.9
2023-03-30T07:35:12.014Z,16.9
2023-03-30T07:36:28.374Z,16.9
2023-03-30T07:37:44.572Z,16.9
2023-03-30T07:39:00.576Z,16.9
2023-03-30T07:40:15.952Z,16.9
2023-03-30T07:41:32.138Z,16.9
2023-03-30T07:42:48.134Z,16.9
2023-03-30T07:44:04.532Z,16.9
2023-03-30T07:45:20.524Z,16.9
2023-03-30T07:46:36.892Z,17
2023-03-30T07:47:53.089Z,16.9
2023-03-30T07:49:09.266Z,17
2023-03-30T07:50:25.277Z,17
2023-03-30T07:51:41.460Z,17
2023-03-30T07:52:57.825Z,17
2023-03-30T07:54:13.836Z,17
2023-03-30T07:55:30.020Z,16.9
2023-03-30T07:56:45.416Z,17
2023-03-30T07:58:01.397Z,17
2023-03-30T07:59:17.789Z,16.9
2023-03-30T08:00:33.967Z,17
2023-03-30T08:01:49.974Z,17
2023-03-30T08:03:06.357Z,17
2023-03-30T08:04:22.542Z,17
2023-03-30T08:05:38.534Z,17
2023-03-30T08:06:54.905Z,17
2023-03-30T08:08:11.103Z,17
2023-03-30T08:09:27.279Z,17
2023-03-30T08:10:43.270Z,17
2023-03-30T08:11:59.668Z,17
2023-03-30T08:13:14.664Z,17
2023-03-30T08:14:31.051Z,17
2023-03-30T08:15:47.242Z,17
2023-03-30T08:17:03.220Z,17
2023-03-30T08:18:19.618Z,17
2023-03-30T08:19:35.801Z,17
2023-03-30T08:20:51.788Z,17
2023-03-30T08:22:08.175Z,17
2023-03-30T08:23:24.371Z,17
2023-03-30T08:24:40.361Z,17.1
2023-03-30T08:25:56.743Z,17.1
2023-03-30T08:27:12.923Z,17.1
2023-03-30T08:28:28.918Z,17.1
2023-03-30T08:29:44.119Z,17.1
2023-03-30T08:31:00.502Z,17.1
2023-03-30T08:32:16.694Z,17.1
2023-03-30T08:33:32.870Z,17.1
2023-03-30T08:34:49.066Z,17.1
2023-03-30T08:36:05.057Z,17.1
2023-03-30T08:37:21.433Z,17.1
2023-03-30T08:38:37.634Z,17.1
2023-03-30T08:39:53.811Z,17.1
2023-03-30T08:41:10.001Z,17.1
2023-03-30T08:42:25.990Z,17.2
2023-03-30T08:43:42.172Z,17.2
2023-03-30T08:44:58.554Z,17.2
2023-03-30T08:46:13.558Z,17.2
2023-03-30T08:47:29.958Z,17.2
2023-03-30T08:48:46.141Z,17.2
2023-03-30T08:50:02.131Z,17.2
2023-03-30T08:51:18.516Z,17.3
2023-03-30T08:52:34.502Z,17.3
2023-03-30T08:53:50.885Z,17.3
2023-03-30T08:55:06.873Z,17.4
2023-03-30T08:56:23.057Z,17.4
2023-03-30T08:57:39.449Z,17.4
2023-03-30T08:58:55.440Z,17.5
2023-03-30T09:00:11.826Z,17.5
2023-03-30T09:01:28.022Z,17.5
2023-03-30T09:02:43.208Z,17.5
2023-03-30T09:03:59.201Z,17.5
2023-03-30T09:05:15.591Z,17.5
2023-03-30T09:06:31.574Z,17.6
2023-03-30T09:07:47.768Z,17.6
2023-03-30T09:09:04.151Z,17.6
2023-03-30T09:10:20.131Z,17.6
2023-03-30T09:11:36.527Z,17.6
2023-03-30T09:12:52.711Z,17.6
2023-03-30T09:14:08.687Z,17.6
2023-03-30T09:15:25.081Z,17.6
2023-03-30T09:16:41.285Z,17.6
2023-03-30T09:17:57.000Z,17.6
2023-03-30T09:19:12.678Z,17.6
2023-03-30T09:20:28.653Z,17.7
2023-03-30T09:21:45.038Z,17.7
2023-03-30T09:23:01.235Z,17.7
2023-03-30T09:24:17.219Z,17.7
2023-03-30T09:25:33.615Z,17.7
2023-03-30T09:26:49.802Z,17.7
2023-03-30T09:28:05.988Z,17.7
2023-03-30T09:29:21.962Z,17.7
2023-03-30T09:30:38.346Z,17.7
2023-03-30T09:31:54.538Z,17.7
2023-03-30T09:33:10.728Z,17.8
2023-03-30T09:34:26.918Z,17.8
2023-03-30T09:35:41.910Z,17.8
2023-03-30T09:36:58.100Z,17.8
2023-03-30T09:38:14.500Z,17.8
2023-03-30T09:39:30.676Z,17.8
2023-03-30T09:40:46.866Z,17.9
2023-03-30T09:42:03.059Z,17.8
2023-03-30T09:43:19.022Z,17.8
2023-03-30T09:44:35.421Z,17.8
2023-03-30T09:45:51.412Z,17.8
2023-03-30T09:47:07.585Z,17.7
2023-03-30T09:48:23.993Z,17.7
2023-03-30T09:49:40.182Z,17.7
2023-03-30T09:50:56.142Z,17.7
2023-03-30T09:52:11.570Z,17.7
2023-03-30T09:53:27.762Z,17.7
2023-03-30T09:54:43.734Z,17.7
2023-03-30T09:56:00.143Z,17.7
2023-03-30T09:57:16.328Z,17.8
2023-03-30T09:58:32.296Z,17.8
2023-03-30T09:59:48.487Z,17.8
2023-03-30T10:01:04.876Z,17.8
2023-03-30T10:02:21.078Z,17.7
2023-03-30T10:03:37.251Z,17.7
2023-03-30T10:04:53.437Z,17.7
2023-03-30T10:06:09.405Z,17.6
2023-03-30T10:07:25.602Z,17.6
2023-03-30T10:08:41.033Z,17.6
2023-03-30T10:09:57.205Z,17.6
2023-03-30T10:11:13.167Z,17.6
2023-03-30T10:12:29.590Z,17.7
2023-03-30T10:13:45.555Z,17.6
2023-03-30T10:15:01.736Z,17.6
2023-03-30T10:16:18.145Z,17.6
2023-03-30T10:17:34.327Z,17.6
2023-03-30T10:18:50.291Z,17.6
2023-03-30T10:20:06.717Z,17.6
2023-03-30T10:21:22.887Z,17.6
2023-03-30T10:22:38.854Z,17.5
2023-03-30T10:23:55.050Z,17.5
2023-03-30T10:25:10.000Z,17.5
2023-03-30T10:26:26.444Z,17.5
2023-03-30T10:27:42.851Z,17.5
2023-03-30T10:28:58.820Z,17.5
2023-03-30T10:30:14.995Z,17.5
2023-03-30T10:31:31.188Z,17.5
2023-03-30T10:32:47.372Z,17.5
2023-03-30T10:34:03.796Z,17.5
2023-03-30T10:35:19.982Z,17.5
2023-03-30T10:36:35.935Z,17.5
2023-03-30T10:37:52.118Z,17.5
2023-03-30T10:39:08.527Z,17.5
2023-03-30T10:40:24.499Z,17.5
2023-03-30T10:41:39.929Z,17.5
2023-03-30T10:42:56.108Z,17.5
2023-03-30T10:44:12.300Z,17.6
2023-03-30T10:45:28.263Z,17.6
2023-03-30T10:46:44.680Z,17.6
2023-03-30T10:48:00.636Z,17.7
2023-03-30T10:49:15.841Z,17.7
2023-03-30T10:50:32.253Z,17.7
2023-03-30T10:51:48.440Z,17.7
2023-03-30T10:53:04.634Z,17.8
2023-03-30T10:54:20.830Z,17.8
2023-03-30T10:55:37.012Z,17.8
2023-03-30T10:56:52.971Z,17.8
2023-03-30T10:58:09.382Z,17.8
2023-03-30T10:59:25.576Z,17.8
2023-03-30T11:00:41.517Z,17.8
2023-03-30T11:01:57.711Z,17.9
2023-03-30T11:03:14.129Z,18
2023-03-30T11:04:30.329Z,18
2023-03-30T11:05:45.292Z,18.1
2023-03-30T11:07:01.708Z,18.2
2023-03-30T11:08:17.898Z,18.1
2023-03-30T11:09:34.094Z,18.1
2023-03-30T11:10:50.269Z,18.1
2023-03-30T11:12:06.455Z,18.1
2023-03-30T11:13:22.423Z,18
2023-03-30T11:14:38.605Z,17.9
2023-03-30T11:15:54.785Z,17.8
2023-03-30T11:17:11.200Z,17.8
2023-03-30T11:18:27.386Z,17.8
2023-03-30T11:19:43.344Z,17.8
2023-03-30T11:20:59.779Z,17.8
2023-03-30T11:22:14.981Z,17.8
2023-03-30T11:23:30.932Z,17.9
2023-03-30T11:24:47.339Z,17.9
2023-03-30T11:26:03.536Z,17.9
2023-03-30T11:27:19.492Z,17.9
2023-03-30T11:28:35.908Z,17.9
2023-03-30T11:29:52.099Z,17.9
2023-03-30T11:31:08.055Z,17.9
2023-03-30T11:32:24.232Z,17.9
2023-03-30T11:33:40.660Z,17.9
2023-03-30T11:34:56.605Z,18
2023-03-30T11:36:13.039Z,18
2023-03-30T11:37:29.210Z,18
2023-03-30T11:38:44.186Z,18
2023-03-30T11:40:00.379Z,18
2023-03-30T11:41:16.567Z,18
2023-03-30T11:42:32.993Z,18
2023-03-30T11:43:48.926Z,18
2023-03-30T11:45:05.127Z,18
2023-03-30T11:46:21.304Z,18.1
2023-03-30T11:47:37.738Z,18.3
2023-03-30T11:48:53.932Z,18.4
2023-03-30T11:50:10.114Z,18.3
2023-03-30T11:51:26.290Z,18.3
2023-03-30T11:52:42.250Z,18.3
2023-03-30T11:53:58.436Z,18.5
2023-03-30T11:55:13.875Z,18.5
2023-03-30T11:56:30.058Z,18.6
2023-03-30T11:57:46.240Z,18.9
2023-03-30T11:59:02.183Z,19
2023-03-30T12:00:18.629Z,19.2
2023-03-30T12:01:34.817Z,19.4
2023-03-30T12:02:50.991Z,19.4
2023-03-30T12:04:06.940Z,19.5
2023-03-30T12:05:23.123Z,19.5
2023-03-30T12:06:39.316Z,19.6
2023-03-30T12:07:55.748Z,19.6
2023-03-30T12:09:11.686Z,19.5
2023-03-30T12:10:28.129Z,19.6
2023-03-30T12:11:43.318Z,19.7
2023-03-30T12:12:59.517Z,19.8
2023-03-30T12:14:15.706Z,19.9
2023-03-30T12:15:31.885Z,20.1
2023-03-30T12:16:47.831Z,20.1
2023-03-30T12:18:04.007Z,20.3
2023-03-30T12:19:20.457Z,20.5
2023-03-30T12:20:36.640Z,20.6
2023-03-30T12:21:52.819Z,20.7
2023-03-30T12:23:09.021Z,20.8
2023-03-30T12:24:24.951Z,21
2023-03-30T12:25:41.127Z,21.1
2023-03-30T12:26:57.566Z,21.2
2023-03-30T12:28:12.769Z,21.2
2023-03-30T12:29:28.722Z,21.3
2023-03-30T12:30:44.897Z,21.3
2023-03-30T12:32:01.094Z,21.4
2023-03-30T12:33:17.267Z,21.5
2023-03-30T12:34:33.706Z,21.6
2023-03-30T12:35:49.893Z,21.5
2023-03-30T12:37:06.085Z,21
2023-03-30T12:38:22.022Z,20.8
2023-03-30T12:39:38.454Z,20.9
2023-03-30T12:40:54.647Z,21.4
2023-03-30T12:42:10.845Z,21.7
2023-03-30T12:43:26.778Z,21.8
2023-03-30T12:44:41.979Z,21.9
2023-03-30T12:45:58.406Z,22
2023-03-30T12:47:14.345Z,21.9
2023-03-30T12:48:30.795Z,21.6
2023-03-30T12:49:46.974Z,21.6
2023-03-30T12:51:03.169Z,21.7
2023-03-30T12:52:19.343Z,21.9
2023-03-30T12:53:35.533Z,21.3
2023-03-30T12:54:51.465Z,21.3
2023-03-30T12:56:07.651Z,21.8
2023-03-30T12:57:23.844Z,22.2
2023-03-30T12:58:40.032Z,22.3
2023-03-30T12:59:56.468Z,21.7
2023-03-30T13:01:11.415Z,21.9
2023-03-30T13:02:27.616Z,22.4
2023-03-30T13:03:43.807Z,22.5
2023-03-30T13:05:00.243Z,22.1
2023-03-30T13:06:16.172Z,22.1
2023-03-30T13:07:32.365Z,22
2023-03-30T13:08:48.537Z,22.2
2023-03-30T13:10:04.738Z,22.2
2023-03-30T13:11:21.169Z,22.2
2023-03-30T13:12:37.359Z,22.6
2023-03-30T13:13:53.552Z,22.8
2023-03-30T13:15:09.748Z,22.1
2023-03-30T13:16:25.677Z,21.7
2023-03-30T13:17:40.881Z,22.1
2023-03-30T13:18:57.311Z,22
2023-03-30T13:20:13.501Z,22.1
2023-03-30T13:21:29.437Z,21.8
2023-03-30T13:22:45.625Z,21.4
2023-03-30T13:24:02.058Z,21.4
2023-03-30T13:25:18.253Z,21
2023-03-30T13:26:34.444Z,21
2023-03-30T13:27:50.635Z,21
2023-03-30T13:29:06.566Z,21.1
2023-03-30T13:30:22.735Z,21.1
2023-03-30T13:31:39.200Z,20.9
2023-03-30T13:32:55.389Z,21.1
2023-03-30T13:34:10.321Z,21.3
2023-03-30T13:35:26.777Z,21.5
2023-03-30T13:36:42.686Z,22
2023-03-30T13:37:58.884Z,21.8
2023-03-30T13:39:15.338Z,21.7
2023-03-30T13:40:31.247Z,21.3
2023-03-30T13:41:47.702Z,21.5
2023-03-30T13:43:03.905Z,21.5
2023-03-30T13:44:20.082Z,21.1
2023-03-30T13:45:35.996Z,20.9
2023-03-30T13:46:52.187Z,20.7
2023-03-30T13:48:08.388Z,20.5
2023-03-30T13:49:24.832Z,20.4
2023-03-30T13:50:40.024Z,20.3
2023-03-30T13:51:55.962Z,20.1
2023-03-30T13:53:12.145Z,20
2023-03-30T13:54:28.589Z,20
2023-03-30T13:55:44.525Z,19.9
2023-03-30T13:57:00.704Z,19.8
2023-03-30T13:58:17.156Z,19.8
2023-03-30T13:59:33.081Z,19.7
2023-03-30T14:00:49.261Z,19.7
2023-03-30T14:02:05.728Z,19.6
2023-03-30T14:03:21.631Z,19.6
2023-03-30T14:04:38.093Z,19.5
2023-03-30T14:05:54.279Z,19.5
2023-03-30T14:07:09.478Z,19.4
2023-03-30T14:08:25.412Z,19.4
2023-03-30T14:09:41.870Z,19.4
2023-03-30T14:10:57.774Z,19.4
2023-03-30T14:12:13.963Z,19.3
2023-03-30T14:13:30.423Z,19.3
2023-03-30T14:14:46.604Z,19.3
2023-03-30T14:16:02.529Z,19.2
2023-03-30T14:17:18.976Z,19.2
2023-03-30T14:18:35.164Z,19.2
2023-03-30T14:19:51.082Z,19.2
2023-03-30T14:21:07.278Z,19.2
2023-03-30T14:22:23.742Z,19.2
2023-03-30T14:23:38.937Z,19.1
2023-03-30T14:24:54.846Z,19.1
2023-03-30T14:26:11.036Z,19.1
2023-03-30T14:27:27.494Z,19.1
2023-03-30T14:28:43.695Z,19.1
2023-03-30T14:29:59.863Z,19
2023-03-30T14:31:16.058Z,19
2023-03-30T14:32:32.249Z,19
2023-03-30T14:33:48.169Z,19
2023-03-30T14:35:04.349Z,19
2023-03-30T14:36:20.810Z,18.9
2023-03-30T14:37:36.718Z,18.9
2023-03-30T14:38:53.186Z,18.9
2023-03-30T14:40:08.382Z,18.9
2023-03-30T14:41:24.303Z,18.9
2023-03-30T14:42:40.493Z,18.9
2023-03-30T14:43:56.687Z,18.8
2023-03-30T14:45:12.869Z,18.8
2023-03-30T14:46:29.057Z,18.8
2023-03-30T14:47:45.235Z,18.8
2023-03-30T14:49:01.440Z,18.8
2023-03-30T14:50:17.886Z,18.8
2023-03-30T14:51:34.083Z,18.8
2023-03-30T14:52:50.260Z,18.7
2023-03-30T14:54:06.454Z,18.7
2023-03-30T14:55:22.646Z,18.7
2023-03-30T14:56:37.852Z,18.7
2023-03-30T14:57:54.045Z,18.7
2023-03-30T14:59:10.234Z,18.6
2023-03-30T15:00:26.423Z,18.6
2023-03-30T15:01:42.599Z,18.6
2023-03-30T15:02:58.794Z,18.6
2023-03-30T15:04:13.993Z,18.6
2023-03-30T15:05:30.192Z,18.6
2023-03-30T15:06:46.387Z,18.5
2023-03-30T15:08:02.568Z,18.5
2023-03-30T15:09:18.754Z,18.5
2023-03-30T15:10:34.948Z,18.5
2023-03-30T15:11:51.142Z,18.5
2023-03-30T15:13:07.321Z,18.5
2023-03-30T15:14:23.507Z,18.5
2023-03-30T15:15:39.704Z,18.5
2023-03-30T15:16:55.900Z,18.4
2023-03-30T15:18:12.086Z,18.4
2023-03-30T15:19:28.265Z,18.4
2023-03-30T15:20:43.464Z,18.4
2023-03-30T15:21:59.668Z,18.4
2023-03-30T15:23:15.849Z,18.4
2023-03-30T15:24:32.053Z,18.4
2023-03-30T15:25:48.221Z,18.4
2023-03-30T15:27:04.402Z,18.4
2023-03-30T15:28:20.590Z,18.4
2023-03-30T15:29:36.810Z,18.4
2023-03-30T15:30:53.002Z,18.3
2023-03-30T15:32:09.156Z,18.3
2023-03-30T15:33:25.363Z,18.3
2023-03-30T15:34:41.533Z,18.3
2023-03-30T15:35:57.733Z,18.3
2023-03-30T15:37:12.945Z,18.2
2023-03-30T15:38:29.121Z,18.3
2023-03-30T15:39:45.335Z,18.2
2023-03-30T15:41:01.511Z,18.2
2023-03-30T15:42:17.691Z,18.2
2023-03-30T15:43:33.882Z,18.2
2023-03-30T15:44:50.065Z,18.2
2023-03-30T15:46:06.250Z,18.2
2023-03-30T15:47:22.459Z,18.2
2023-03-30T15:48:38.659Z,18.2
2023-03-30T15:49:54.814Z,18.2
2023-03-30T15:51:11.007Z,18.1
2023-03-30T15:52:27.190Z,18.2
2023-03-30T15:53:42.401Z,18.1
2023-03-30T15:54:58.585Z,18.1
2023-03-30T15:56:14.776Z,18.1
2023-03-30T15:57:30.977Z,18.1
2023-03-30T15:58:47.154Z,18.1
2023-03-30T16:00:03.376Z,18.1
2023-03-30T16:01:19.543Z,18.1
2023-03-30T16:02:35.730Z,18.1
2023-03-30T16:03:51.917Z,18.1
2023-03-30T16:05:08.111Z,18.1
2023-03-30T16:06:24.290Z,18.1
2023-03-30T16:07:40.485Z,18.1
2023-03-30T16:08:56.659Z,18.1
2023-03-30T16:10:11.892Z,18.1
2023-03-30T16:11:28.073Z,18.1
2023-03-30T16:12:44.252Z,18.1
2023-03-30T16:14:00.427Z,18.1
2023-03-30T16:15:16.641Z,18
2023-03-30T16:16:32.823Z,18
2023-03-30T16:17:49.013Z,18
2023-03-30T16:19:05.181Z,18
2023-03-30T16:20:21.386Z,18
2023-03-30T16:21:37.565Z,18
2023-03-30T16:22:53.767Z,18
2023-03-30T16:24:09.951Z,18
2023-03-30T16:25:26.159Z,18
2023-03-30T16:26:41.347Z,18
2023-03-30T16:27:57.527Z,18
2023-03-30T16:29:13.723Z,18
2023-03-30T16:30:29.900Z,18
2023-03-30T16:31:46.101Z,18
2023-03-30T16:33:02.321Z,18
2023-03-30T16:34:18.494Z,18
2023-03-30T16:35:34.652Z,18.1
2023-03-30T16:36:50.854Z,18.1
2023-03-30T16:38:07.031Z,18.1
2023-03-30T16:39:23.223Z,18.1
2023-03-30T16:40:39.424Z,18.1
2023-03-30T16:41:55.627Z,18
2023-03-30T16:43:11.907Z,18
2023-03-30T16:44:28.108Z,18
2023-03-30T16:45:44.329Z,18
2023-03-30T16:47:00.471Z,18
2023-03-30T16:48:16.692Z,17.9
2023-03-30T16:49:32.000Z,17.9
2023-03-30T16:50:49.044Z,17.9
2023-03-30T16:52:05.227Z,17.9
2023-03-30T16:53:21.418Z,17.9
2023-03-30T16:54:37.652Z,17.9
2023-03-30T16:55:53.811Z,17.9
2023-03-30T16:57:10.001Z,17.9
2023-03-30T16:58:26.177Z,17.9
2023-03-30T16:59:41.415Z,17.9